Time;durP1;ratioP1;P1;durP2;ratioP2;P2;SDS_P1;SDS_P2;PMS_P1;PMS_P2;Temp;Humidity;BMP_temperature;BMP_pressure;BME280_temperature;BME280_humidity;BME280_pressure;Samples;Min_cycle;Max_cycle;Signal;HPM_P1;HPM_P2
2022/08/06 00:01:53;;;;;;;2.85;1.85;;;13.10;96.70;;;;;;5026434;28;20094;-64
2022/08/06 00:04:20;;;;;;;4.53;1.80;;;13.10;97.00;;;;;;5024610;28;20041;-64
2022/08/06 00:06:45;;;;;;;4.03;1.80;;;13.10;97.10;;;;;;5028157;28;20080;-64
2022/08/06 00:09:12;;;;;;;2.63;1.50;;;13.00;97.20;;;;;;5012800;28;20140;-64
2022/08/06 00:11:38;;;;;;;2.03;1.40;;;13.00;97.20;;;;;;5029661;28;20524;-64
2022/08/06 00:14:05;;;;;;;2.47;1.60;;;13.00;97.20;;;;;;5045756;28;20053;-64
2022/08/06 00:16:31;;;;;;;3.55;1.60;;;13.00;97.10;;;;;;5027703;28;20049;-64
2022/08/06 00:18:57;;;;;;;1.83;1.30;;;13.00;97.10;;;;;;5024559;28;20140;-63
2022/08/06 00:21:22;;;;;;;3.45;1.80;;;13.00;97.10;;;;;;5026922;28;20084;-64
2022/08/06 00:23:48;;;;;;;3.65;1.60;;;13.00;97.10;;;;;;5046871;28;20044;-64
2022/08/06 00:26:14;;;;;;;3.78;1.42;;;12.90;97.30;;;;;;5020985;28;20123;-63
2022/08/06 00:28:40;;;;;;;2.22;1.27;;;13.00;97.30;;;;;;5026551;28;20032;-64
2022/08/06 00:31:07;;;;;;;3.00;1.70;;;12.90;97.20;;;;;;5008839;28;20060;-64
2022/08/06 00:33:34;;;;;;;2.38;1.83;;;12.90;97.80;;;;;;5028441;28;20044;-64
2022/08/06 00:36:00;;;;;;;4.82;1.88;;;12.90;98.00;;;;;;5000998;28;20802;-64
2022/08/06 00:38:25;;;;;;;4.07;1.90;;;12.80;98.30;;;;;;5042232;28;20063;-64
2022/08/06 00:40:53;;;;;;;1.98;1.63;;;12.80;98.60;;;;;;5027410;28;20045;-64
2022/08/06 00:43:19;;;;;;;3.78;1.80;;;12.80;98.50;;;;;;5032089;28;20137;-64
2022/08/06 00:45:44;;;;;;;8.18;2.13;;;12.70;98.60;;;;;;5021070;28;20402;-64
2022/08/06 00:48:10;;;;;;;2.90;1.80;;;12.70;98.80;;;;;;5028627;28;20965;-64
2022/08/06 00:50:36;;;;;;;3.13;1.60;;;12.70;98.90;;;;;;5042837;28;20055;-64
2022/08/06 00:53:03;;;;;;;5.45;1.90;;;12.70;98.90;;;;;;5027258;28;20044;-64
2022/08/06 00:55:30;;;;;;;3.38;1.58;;;12.70;99.10;;;;;;5024997;28;20529;-64
2022/08/06 00:57:56;;;;;;;5.15;1.90;;;12.60;99.10;;;;;;5012337;28;20483;-64
2022/08/06 01:00:22;;;;;;;6.50;1.60;;;12.60;99.20;;;;;;5031075;28;20546;-64
2022/08/06 01:02:49;;;;;;;2.75;1.50;;;12.60;99.20;;;;;;5016865;28;20055;-64
2022/08/06 01:05:15;;;;;;;2.25;1.70;;;12.60;99.30;;;;;;5048420;28;20566;-64
2022/08/06 01:07:40;;;;;;;3.45;1.60;;;12.60;99.30;;;;;;5015354;28;20043;-64
2022/08/06 01:10:07;;;;;;;2.58;1.65;;;12.50;99.40;;;;;;5009138;28;20046;-64
2022/08/06 01:12:33;;;;;;;3.75;1.85;;;12.50;99.50;;;;;;5042679;28;20041;-64
2022/08/06 01:14:58;;;;;;;2.47;1.85;;;12.50;99.70;;;;;;5036407;28;20454;-64
2022/08/06 01:17:35;;;;;;;4.15;2.10;;;12.40;99.90;;;;;;5039072;28;20045;-64
2022/08/06 01:20:07;;;;;;;4.55;2.38;;;12.30;99.90;;;;;;5042357;28;20488;-64
2022/08/06 01:23:00;;;;;;;2.97;1.90;;;12.40;99.90;;;;;;5027588;28;20495;-64
2022/08/06 01:25:49;;;;;;;4.07;2.10;;;12.30;99.90;;;;;;5030344;28;20079;-64
2022/08/06 01:28:24;;;;;;;2.13;1.92;;;12.30;99.90;;;;;;5024573;28;20495;-64
2022/08/06 01:30:56;;;;;;;2.85;2.10;;;12.20;99.90;;;;;;5021836;28;20566;-64
2022/08/06 01:33:28;;;;;;;6.18;2.30;;;12.20;99.90;;;;;;5041246;28;20076;-64
2022/08/06 01:35:59;;;;;;;5.40;1.98;;;12.20;99.90;;;;;;5024890;28;20522;-64
2022/08/06 01:38:45;;;;;;;5.20;2.15;;;12.20;99.90;;;;;;5026220;28;20063;-64
2022/08/06 01:41:38;;;;;;;3.10;2.00;;;12.20;99.90;;;;;;5022533;28;20404;-64
2022/08/06 01:44:16;;;;;;;2.78;1.92;;;12.10;99.90;;;;;;5041341;28;20430;-64
2022/08/06 01:46:49;;;;;;;5.97;2.22;;;12.10;99.90;;;;;;5032216;28;20057;-64
2022/08/06 01:49:24;;;;;;;2.50;1.95;;;12.10;99.90;;;;;;5005096;28;20107;-64
2022/08/06 01:51:52;;;;;;;2.83;1.98;;;12.10;99.90;;;;;;5021575;28;20672;-64
2022/08/06 01:54:20;;;;;;;3.08;2.30;;;12.10;99.90;;;;;;5023892;28;20408;-64
2022/08/06 01:56:50;;;;;;;3.88;1.95;;;12.10;99.90;;;;;;5007570;28;20058;-64
2022/08/06 01:59:18;;;;;;;5.95;2.35;;;12.10;99.90;;;;;;5011016;28;20721;-64
2022/08/06 02:01:49;;;;;;;5.38;2.28;;;12.00;99.90;;;;;;5011578;28;20041;-64
2022/08/06 02:04:17;;;;;;;4.15;2.20;;;12.10;99.90;;;;;;5013796;28;20941;-66
2022/08/06 02:06:45;;;;;;;6.32;2.00;;;12.10;99.90;;;;;;5007351;28;20108;-64
2022/08/06 02:09:18;;;;;;;4.18;2.25;;;12.00;99.90;;;;;;5020148;28;20040;-64
2022/08/06 02:11:53;;;;;;;4.63;2.10;;;12.10;99.90;;;;;;5004220;28;20126;-64
2022/08/06 02:14:20;;;;;;;4.07;2.17;;;12.00;99.90;;;;;;5002969;28;20053;-64
2022/08/06 02:16:48;;;;;;;7.78;2.20;;;12.00;99.90;;;;;;4990502;28;20045;-64
2022/08/06 02:19:17;;;;;;;2.45;2.00;;;12.00;99.90;;;;;;5001784;28;20045;-64
2022/08/06 02:21:45;;;;;;;3.22;2.08;;;12.00;99.90;;;;;;5021222;28;20570;-64
2022/08/06 02:24:11;;;;;;;2.53;1.67;;;12.00;99.90;;;;;;5022678;28;20052;-64
2022/08/06 02:26:39;;;;;;;3.15;1.80;;;12.00;99.90;;;;;;5005437;28;20044;-64
2022/08/06 02:29:09;;;;;;;3.35;1.90;;;12.00;99.90;;;;;;5019297;28;20045;-64
2022/08/06 02:31:35;;;;;;;4.43;1.80;;;12.00;99.90;;;;;;5019040;28;20573;-64
2022/08/06 02:34:01;;;;;;;1.70;1.60;;;11.90;99.90;;;;;;5001565;28;20056;-64
2022/08/06 02:36:38;;;;;;;2.95;1.75;;;11.90;99.90;;;;;;5004138;28;20041;-64
2022/08/06 02:39:07;;;;;;;2.10;1.90;;;11.90;99.90;;;;;;5005587;28;20678;-64
2022/08/06 02:41:38;;;;;;;3.83;1.80;;;11.90;99.90;;;;;;5024246;28;20037;-64
2022/08/06 02:44:16;;;;;;;4.78;1.80;;;11.90;99.90;;;;;;5004030;28;20052;-64
2022/08/06 02:46:59;;;;;;;2.80;2.10;;;11.90;99.90;;;;;;5019056;28;20075;-64
2022/08/06 02:49:27;;;;;;;3.17;2.10;;;11.90;99.90;;;;;;5024748;28;20041;-64
2022/08/06 02:52:15;;;;;;;7.38;2.10;;;11.80;99.90;;;;;;5043937;28;20044;-65
2022/08/06 02:54:48;;;;;;;3.13;2.15;;;11.80;99.90;;;;;;5043063;28;20562;-64
2022/08/06 02:57:20;;;;;;;2.92;1.80;;;11.70;99.90;;;;;;5027681;28;20380;-64
2022/08/06 02:59:52;;;;;;;3.28;2.00;;;11.70;99.90;;;;;;5048792;28;20091;-64
2022/08/06 03:02:22;;;;;;;3.13;1.90;;;11.70;99.90;;;;;;5043381;28;20067;-64
2022/08/06 03:04:50;;;;;;;3.33;2.20;;;11.70;99.90;;;;;;5035882;28;20119;-64
2022/08/06 03:07:18;;;;;;;4.85;2.33;;;11.70;99.90;;;;;;5025040;28;20376;-64
2022/08/06 03:09:48;;;;;;;3.95;2.20;;;11.60;99.90;;;;;;5024517;28;20045;-64
2022/08/06 03:12:16;;;;;;;4.07;2.30;;;11.70;99.90;;;;;;5034836;28;20570;-64
2022/08/06 03:14:44;;;;;;;2.92;2.22;;;11.70;99.90;;;;;;5034493;28;20121;-64
2022/08/06 03:17:13;;;;;;;2.25;2.05;;;11.70;99.90;;;;;;5024064;28;20053;-64
2022/08/06 03:19:41;;;;;;;5.13;2.55;;;11.70;99.90;;;;;;5044020;28;20600;-64
2022/08/06 03:22:10;;;;;;;4.07;2.45;;;11.70;99.90;;;;;;5043524;28;20119;-64
2022/08/06 03:24:38;;;;;;;3.60;2.50;;;11.70;99.90;;;;;;5034480;28;20041;-64
2022/08/06 03:27:05;;;;;;;4.28;2.10;;;11.70;99.90;;;;;;5026488;28;20082;-64
2022/08/06 03:29:33;;;;;;;4.10;2.28;;;11.70;99.90;;;;;;5005725;28;20040;-64
2022/08/06 03:32:01;;;;;;;4.50;2.53;;;11.70;99.90;;;;;;5039061;28;20069;-64
2022/08/06 03:34:29;;;;;;;5.22;2.00;;;11.70;99.90;;;;;;5030967;28;20379;-64
2022/08/06 03:36:56;;;;;;;4.57;2.22;;;11.70;99.90;;;;;;5024166;28;20056;-64
2022/08/06 03:39:25;;;;;;;2.90;2.15;;;11.70;99.90;;;;;;5008613;28;20041;-64
2022/08/06 03:41:52;;;;;;;3.80;2.00;;;11.70;99.90;;;;;;5024017;28;20553;-64
2022/08/06 03:44:19;;;;;;;2.13;1.85;;;11.70;99.90;;;;;;5031375;28;20692;-64
2022/08/06 03:46:58;;;;;;;2.08;1.80;;;11.70;99.90;;;;;;5020591;28;20790;-64
2022/08/06 03:49:29;;;;;;;2.55;1.90;;;11.70;99.90;;;;;;5040210;28;20115;-64
2022/08/06 03:51:58;;;;;;;3.47;1.90;;;11.70;99.90;;;;;;5025792;28;20556;-64
2022/08/06 03:54:35;;;;;;;3.70;2.03;;;11.70;99.90;;;;;;5041626;28;20581;-64
2022/08/06 03:57:09;;;;;;;2.67;2.10;;;11.70;99.90;;;;;;5027449;28;21590;-64
2022/08/06 03:59:39;;;;;;;3.90;1.83;;;11.70;99.90;;;;;;5043916;28;20049;-64
2022/08/06 04:02:06;;;;;;;3.40;1.85;;;11.70;99.90;;;;;;5020391;28;20483;-64
2022/08/06 04:04:33;;;;;;;2.92;1.88;;;11.70;99.90;;;;;;5042965;28;20067;-64
2022/08/06 04:07:00;;;;;;;2.42;1.80;;;11.60;99.90;;;;;;5042240;28;20163;-64
2022/08/06 04:09:27;;;;;;;4.95;2.10;;;11.60;99.90;;;;;;5031221;28;20128;-64
2022/08/06 04:11:54;;;;;;;2.42;2.08;;;11.60;99.90;;;;;;5009253;28;20048;-64
2022/08/06 04:14:21;;;;;;;5.70;2.10;;;11.60;99.90;;;;;;5043695;28;20072;-64
2022/08/06 04:16:48;;;;;;;3.92;2.15;;;11.60;99.90;;;;;;5040262;28;20595;-64
2022/08/06 04:19:18;;;;;;;3.22;2.20;;;11.60;99.90;;;;;;5020042;28;20059;-64
2022/08/06 04:21:45;;;;;;;7.47;2.10;;;11.60;99.90;;;;;;5024316;28;20398;-64
2022/08/06 04:24:11;;;;;;;2.63;2.10;;;11.60;99.90;;;;;;5004576;28;20526;-64
2022/08/06 04:26:38;;;;;;;2.33;2.03;;;11.70;99.90;;;;;;5024650;28;20474;-64
2022/08/06 04:29:08;;;;;;;2.60;2.20;;;11.70;99.90;;;;;;5040425;28;20041;-64
2022/08/06 04:31:36;;;;;;;3.72;2.30;;;11.70;99.90;;;;;;5024947;28;20045;-64
2022/08/06 04:34:03;;;;;;;2.65;2.05;;;11.80;99.90;;;;;;5006145;28;20052;-64
2022/08/06 04:36:29;;;;;;;3.25;2.17;;;11.90;99.90;;;;;;5024382;28;20049;-64
2022/08/06 04:38:56;;;;;;;2.95;2.20;;;11.90;99.90;;;;;;5026241;28;20072;-64
2022/08/06 04:41:22;;;;;;;3.90;2.15;;;12.00;99.90;;;;;;5040800;28;20048;-64
2022/08/06 04:43:48;;;;;;;5.18;2.20;;;12.10;99.90;;;;;;5005409;28;20044;-64
2022/08/06 04:46:14;;;;;;;3.00;2.10;;;12.10;99.90;;;;;;5038765;28;20058;-64
2022/08/06 04:48:40;;;;;;;3.00;2.40;;;12.10;99.90;;;;;;5004709;28;20048;-64
2022/08/06 04:51:07;;;;;;;5.50;2.20;;;12.20;99.90;;;;;;5025681;28;20055;-64
2022/08/06 04:53:38;;;;;;;3.00;2.30;;;12.30;99.90;;;;;;5021724;28;20499;-64
2022/08/06 04:56:07;;;;;;;2.40;2.20;;;12.40;99.90;;;;;;5005017;28;20151;-64
2022/08/06 04:58:34;;;;;;;4.50;2.42;;;12.40;99.90;;;;;;5010126;28;20119;-64
2022/08/06 05:01:00;;;;;;;3.83;2.30;;;12.40;99.90;;;;;;5043606;28;20056;-64
2022/08/06 05:03:27;;;;;;;4.65;2.30;;;12.40;99.90;;;;;;5032110;28;20482;-64
2022/08/06 05:06:18;;;;;;;2.53;2.20;;;12.50;99.90;;;;;;5024348;28;20049;-64
2022/08/06 05:08:48;;;;;;;5.20;2.05;;;12.50;99.90;;;;;;5025256;28;20486;-64
2022/08/06 05:11:20;;;;;;;4.38;2.10;;;12.40;99.90;;;;;;5039858;28;20062;-64
2022/08/06 05:13:48;;;;;;;;;;;12.40;99.90;;;;;;5026854;28;20044;-64
2022/08/06 05:16:16;;;;;;;5.03;2.67;;;12.40;99.90;;;;;;5044347;28;20414;-64
2022/08/06 05:18:50;;;;;;;5.82;2.17;;;12.40;99.90;;;;;;5039324;28;20453;-64
2022/08/06 05:21:28;;;;;;;2.60;2.40;;;12.40;99.90;;;;;;5020301;28;20049;-64
2022/08/06 05:23:55;;;;;;;3.72;2.42;;;12.50;99.90;;;;;;5036068;28;20055;-64
2022/08/06 05:26:22;;;;;;;3.22;2.08;;;12.50;99.90;;;;;;5020178;28;20040;-64
2022/08/06 05:28:47;;;;;;;4.15;2.67;;;12.50;99.90;;;;;;5021916;28;20546;-64
2022/08/06 05:31:13;;;;;;;3.60;2.42;;;12.50;99.90;;;;;;5024906;28;20567;-64
2022/08/06 05:33:40;;;;;;;4.57;2.45;;;12.60;99.90;;;;;;5023061;28;20072;-64
2022/08/06 05:36:10;;;;;;;4.53;2.20;;;12.70;99.90;;;;;;5032112;28;20048;-64
2022/08/06 05:38:38;;;;;;;4.78;2.50;;;12.80;99.90;;;;;;5028580;28;20077;-64
2022/08/06 05:41:06;;;;;;;2.92;2.13;;;12.90;99.90;;;;;;5040759;28;20055;-64
2022/08/06 05:43:32;;;;;;;5.68;2.13;;;12.90;99.90;;;;;;5039523;28;20037;-64
2022/08/06 05:46:07;;;;;;;4.55;2.10;;;13.00;99.90;;;;;;5008881;28;20497;-64
2022/08/06 05:48:38;;;;;;;4.78;2.08;;;13.00;99.90;;;;;;5037355;28;20846;-64
2022/08/06 05:51:23;;;;;;;5.55;2.20;;;13.10;99.90;;;;;;5040335;28;20436;-64
2022/08/06 05:53:54;;;;;;;3.72;2.05;;;13.10;99.90;;;;;;5021739;28;20052;-64
2022/08/06 05:56:26;;;;;;;7.88;2.05;;;13.10;99.90;;;;;;5019915;28;20116;-64
2022/08/06 05:58:59;;;;;;;4.60;2.00;;;13.10;99.90;;;;;;5024029;28;20131;-64
2022/08/06 06:01:26;;;;;;;2.58;2.20;;;13.20;99.90;;;;;;5018039;28;20120;-64
2022/08/06 06:03:56;;;;;;;4.30;1.90;;;13.10;99.90;;;;;;5037174;28;20430;-64
2022/08/06 06:06:22;;;;;;;3.30;1.80;;;13.20;99.90;;;;;;5014948;28;20283;-64
2022/08/06 06:08:48;;;;;;;3.35;1.80;;;13.20;99.90;;;;;;5006203;28;20044;-64
2022/08/06 06:11:14;;;;;;;5.72;2.60;;;13.20;99.90;;;;;;5040217;28;20037;-64
2022/08/06 06:13:42;;;;;;;9.63;3.33;;;13.20;99.90;;;;;;5037506;28;20499;-64
2022/08/06 06:16:21;;;;;;;9.75;3.10;;;13.30;99.90;;;;;;5043443;28;20049;-65
2022/08/06 06:18:52;;;;;;;7.75;2.85;;;13.40;99.90;;;;;;5023250;28;20519;-64
2022/08/06 06:21:24;;;;;;;8.43;1.77;;;13.60;99.90;;;;;;5034000;28;20351;-64
2022/08/06 06:23:58;;;;;;;5.18;1.90;;;13.70;99.90;;;;;;5028559;28;20040;-64
2022/08/06 06:27:01;;;;;;;2.47;1.50;;;14.00;99.90;;;;;;5024205;28;20585;-64
2022/08/06 06:29:42;;;;;;;5.32;1.73;;;14.20;99.90;;;;;;5049553;28;20114;-64
2022/08/06 06:32:12;;;;;;;3.10;1.65;;;14.40;99.90;;;;;;5029926;28;20041;-64
2022/08/06 06:35:17;;;;;;;3.78;1.92;;;14.50;99.90;;;;;;5012289;28;20115;-64
2022/08/06 06:38:06;;;;;;;7.72;2.40;;;14.70;99.90;;;;;;5035984;28;20045;-64
2022/08/06 06:40:46;;;;;;;3.72;1.90;;;14.80;99.90;;;;;;5043142;28;20048;-64
2022/08/06 06:43:47;;;;;;;2.38;1.65;;;15.00;99.90;;;;;;5026179;28;20052;-64
2022/08/06 06:46:36;;;;;;;3.85;1.77;;;15.00;99.90;;;;;;5024494;28;20048;-59
2022/08/06 06:49:26;;;;;;;8.43;2.05;;;15.10;99.90;;;;;;5046257;28;20072;-61
2022/08/06 06:51:59;;;;;;;2.65;1.67;;;15.20;99.90;;;;;;5031093;28;20051;-61
2022/08/06 06:54:27;;;;;;;;;;;15.30;99.90;;;;;;5052221;28;20226;-61
2022/08/06 06:56:56;;;;;;;6.30;1.85;;;15.30;99.90;;;;;;5035848;28;19989;-60
2022/08/06 06:59:34;;;;;;;3.67;1.70;;;15.40;99.90;;;;;;5054239;28;20049;-61
2022/08/06 07:02:02;;;;;;;3.13;1.60;;;15.50;99.90;;;;;;5054483;28;20106;-60
2022/08/06 07:04:29;;;;;;;3.15;1.77;;;15.60;99.90;;;;;;5042906;28;20048;-63
2022/08/06 07:06:57;;;;;;;5.60;1.63;;;15.70;99.90;;;;;;5039783;28;20043;-62
2022/08/06 07:09:27;;;;;;;4.45;1.70;;;15.80;99.90;;;;;;5044489;28;20479;-61
2022/08/06 07:11:55;;;;;;;3.83;1.60;;;15.90;99.90;;;;;;5045837;28;20048;-61
2022/08/06 07:14:24;;;;;;;4.25;1.80;;;16.00;99.90;;;;;;5038848;28;20142;-62
2022/08/06 07:16:53;;;;;;;2.70;1.50;;;16.00;99.90;;;;;;5033928;28;20606;-61
2022/08/06 07:19:19;;;;;;;3.00;1.30;;;16.20;99.90;;;;;;5017217;28;20131;-62
2022/08/06 07:21:47;;;;;;;4.55;1.50;;;16.40;99.90;;;;;;5038562;28;20037;-62
2022/08/06 07:24:14;;;;;;;1.77;1.20;;;16.50;99.90;;;;;;5037739;28;20053;-62
2022/08/06 07:26:46;;;;;;;4.07;1.20;;;16.60;99.90;;;;;;5016799;28;20041;-62
2022/08/06 07:29:14;;;;;;;2.38;1.20;;;16.70;99.90;;;;;;5018492;28;20045;-61
2022/08/06 07:31:41;;;;;;;7.47;1.30;;;16.70;99.90;;;;;;5031778;28;21955;-62
2022/08/06 07:34:08;;;;;;;2.45;1.02;;;16.70;99.90;;;;;;5038152;28;20045;-62
2022/08/06 07:36:40;;;;;;;5.18;1.30;;;16.60;99.90;;;;;;5004667;28;20047;-62
2022/08/06 07:39:10;;;;;;;1.77;1.27;;;16.60;99.90;;;;;;5043095;28;20048;-62
2022/08/06 07:41:37;;;;;;;3.70;1.20;;;16.60;99.90;;;;;;5031523;28;20299;-62
2022/08/06 07:44:05;;;;;;;4.47;1.00;;;16.70;99.90;;;;;;5032705;28;20131;-62
2022/08/06 07:46:48;;;;;;;2.42;0.90;;;16.90;99.90;;;;;;5041381;28;20062;-62
2022/08/06 07:49:15;;;;;;;6.88;1.20;;;17.00;99.90;;;;;;5038339;28;20048;-62
2022/08/06 07:51:44;;;;;;;2.70;0.93;;;17.20;99.90;;;;;;5024464;28;20097;-61
2022/08/06 07:54:11;;;;;;;3.03;0.80;;;17.40;99.90;;;;;;5024217;28;20037;-62
2022/08/06 07:56:40;;;;;;;3.42;1.15;;;17.50;99.90;;;;;;5018447;28;20099;-61
2022/08/06 07:59:08;;;;;;;3.25;0.90;;;17.70;99.90;;;;;;5022669;28;20445;-62
2022/08/06 08:01:35;;;;;;;4.28;1.00;;;17.80;99.90;;;;;;5043450;28;20092;-62
2022/08/06 08:06:46;;;;;;;2.40;0.88;;;18.10;99.10;;;;;;5035321;28;21199;-62
2022/08/06 08:09:16;;;;;;;1.90;0.80;;;18.30;98.50;;;;;;5012292;28;20080;-62
2022/08/06 08:11:45;;;;;;;4.75;1.20;;;18.50;98.20;;;;;;5026583;28;20331;-63
2022/08/06 08:14:13;;;;;;;4.80;0.90;;;18.70;97.60;;;;;;5020937;28;20052;-62
2022/08/06 08:16:40;;;;;;;3.10;1.00;;;18.80;97.10;;;;;;5016723;28;20048;-62
2022/08/06 08:19:24;;;;;;;4.35;1.23;;;19.00;96.20;;;;;;5039366;28;20557;-62
2022/08/06 08:21:52;;;;;;;1.90;0.95;;;19.20;95.70;;;;;;5030941;28;20129;-62
2022/08/06 08:24:18;;;;;;;2.47;0.90;;;19.40;95.50;;;;;;5034035;28;20099;-63
2022/08/06 08:26:44;;;;;;;2.42;0.90;;;19.70;94.90;;;;;;5030900;28;20755;-62
2022/08/06 08:29:11;;;;;;;2.17;1.00;;;19.80;93.60;;;;;;5036832;28;20040;-62
2022/08/06 08:31:37;;;;;;;4.72;0.90;;;19.60;93.10;;;;;;5049116;28;20071;-62
2022/08/06 08:34:03;;;;;;;3.00;1.10;;;19.50;92.90;;;;;;5042303;28;20044;-61
2022/08/06 08:36:29;;;;;;;3.05;1.00;;;19.20;92.80;;;;;;5049055;28;20107;-62
2022/08/06 08:38:57;;;;;;;10.27;1.30;;;19.10;92.80;;;;;;5050387;28;20407;-62
2022/08/06 08:41:36;;;;;;;7.15;1.25;;;19.00;93.30;;;;;;5035682;28;20101;-62
2022/08/06 08:44:05;;;;;;;7.35;1.30;;;18.80;94.50;;;;;;5051914;28;20106;-62
2022/08/06 08:46:39;;;;;;;8.07;1.00;;;18.60;95.30;;;;;;5053658;28;20132;-61
2022/08/06 08:49:07;;;;;;;4.93;1.17;;;18.40;95.90;;;;;;5035676;28;20394;-62
2022/08/06 08:51:38;;;;;;;8.63;1.60;;;18.20;96.40;;;;;;5055304;28;20487;-62
2022/08/06 08:54:07;;;;;;;3.80;1.23;;;18.10;97.00;;;;;;5041746;28;20149;-61
2022/08/06 08:56:33;;;;;;;4.88;1.52;;;18.00;97.90;;;;;;5052478;28;20137;-61
2022/08/06 08:59:00;;;;;;;3.97;1.63;;;17.90;98.40;;;;;;5051683;28;20537;-61
2022/08/06 09:01:27;;;;;;;5.32;1.52;;;17.90;98.80;;;;;;5050095;28;20049;-62
2022/08/06 09:03:53;;;;;;;3.67;1.40;;;17.90;98.80;;;;;;5034457;28;20048;-61
2022/08/06 09:06:20;;;;;;;10.05;1.50;;;17.90;98.80;;;;;;5033434;28;20154;-62
2022/08/06 09:08:47;;;;;;;2.53;1.13;;;17.90;98.90;;;;;;5053297;28;20063;-62
2022/08/06 09:11:14;;;;;;;7.60;1.38;;;18.00;99.30;;;;;;5052958;28;20120;-60
2022/08/06 09:13:40;;;;;;;7.70;1.50;;;18.10;99.40;;;;;;5053371;28;20725;-60
2022/08/06 09:16:07;;;;;;;3.85;1.77;;;18.30;99.70;;;;;;5052880;28;20044;-61
2022/08/06 09:18:33;;;;;;;6.50;1.60;;;18.60;99.90;;;;;;5051704;28;20040;-62
2022/08/06 09:21:01;;;;;;;3.25;1.65;;;18.80;99.50;;;;;;5051808;28;20049;-62
2022/08/06 09:23:27;;;;;;;4.90;1.58;;;19.20;99.00;;;;;;5050833;28;20049;-62
2022/08/06 09:25:54;;;;;;;4.75;1.63;;;19.40;98.70;;;;;;5048362;28;20139;-62
2022/08/06 09:28:27;;;;;;;1.95;1.13;;;19.60;98.10;;;;;;5051102;28;20116;-61
2022/08/06 09:31:05;;;;;;;3.80;1.60;;;19.80;96.10;;;;;;5032630;28;20416;-62
2022/08/06 09:33:33;;;;;;;5.15;2.05;;;19.90;95.30;;;;;;5018903;28;20040;-62
2022/08/06 09:36:05;;;;;;;4.30;1.65;;;20.10;94.60;;;;;;5049188;28;20040;-62
2022/08/06 09:38:32;;;;;;;4.97;1.60;;;20.30;93.60;;;;;;5034701;28;20074;-62
2022/08/06 09:41:09;;;;;;;3.38;1.58;;;20.40;92.70;;;;;;5053479;28;20459;-63
2022/08/06 09:43:37;;;;;;;4.80;1.45;;;20.60;91.90;;;;;;5037613;28;20175;-63
2022/08/06 09:46:04;;;;;;;3.10;1.60;;;20.70;91.70;;;;;;5054329;28;20367;-62
2022/08/06 09:48:30;;;;;;;1.95;1.40;;;20.80;91.40;;;;;;5017989;28;20083;-62
2022/08/06 09:50:55;;;;;;;4.50;1.70;;;21.00;90.80;;;;;;5034182;28;20107;-62
2022/08/06 09:53:22;;;;;;;3.83;1.83;;;21.20;90.10;;;;;;5002173;28;20042;-62
2022/08/06 09:55:53;;;;;;;2.30;1.50;;;21.40;88.70;;;;;;5033250;28;20606;-62
2022/08/06 09:58:35;;;;;;;4.38;1.30;;;21.50;86.50;;;;;;5002770;28;20084;-62
2022/08/06 10:01:17;;;;;;;5.90;1.75;;;21.70;86.70;;;;;;5036074;28;20150;-62
2022/08/06 10:03:43;;;;;;;8.48;1.70;;;21.90;86.00;;;;;;5034503;28;20098;-62
2022/08/06 10:06:15;;;;;;;3.95;1.60;;;22.00;84.80;;;;;;5036720;28;20041;-62
2022/08/06 10:08:43;;;;;;;4.55;1.70;;;22.00;81.40;;;;;;5035572;28;20045;-62
2022/08/06 10:11:09;;;;;;;3.78;1.50;;;21.90;81.30;;;;;;5035406;28;20064;-62
2022/08/06 10:13:37;;;;;;;3.40;1.85;;;21.70;80.40;;;;;;5009982;28;20050;-62
2022/08/06 10:16:16;;;;;;;2.90;1.60;;;21.80;81.30;;;;;;4992318;28;20051;-63
2022/08/06 10:18:44;;;;;;;4.38;1.55;;;22.00;81.10;;;;;;5034131;28;20045;-62
2022/08/06 10:21:15;;;;;;;2.85;1.50;;;22.20;80.80;;;;;;5014259;28;20143;-63
2022/08/06 10:23:44;;;;;;;2.40;1.80;;;22.40;79.20;;;;;;5016324;28;20041;-63
2022/08/06 10:26:12;;;;;;;2.28;1.35;;;22.60;79.00;;;;;;5034422;28;20040;-63
2022/08/06 10:28:41;;;;;;;3.42;1.65;;;22.70;78.40;;;;;;5007944;28;20396;-62
2022/08/06 10:31:13;;;;;;;3.35;1.45;;;22.70;78.50;;;;;;5035319;28;20102;-63
2022/08/06 10:33:52;;;;;;;2.75;1.70;;;22.50;77.40;;;;;;5027098;28;20059;-62
2022/08/06 10:36:27;;;;;;;3.33;1.67;;;22.40;76.30;;;;;;5032483;28;20503;-63
2022/08/06 10:38:56;;;;;;;2.72;1.92;;;22.40;75.20;;;;;;5017698;28;20050;-63
2022/08/06 10:41:22;;;;;;;3.40;1.90;;;22.30;74.30;;;;;;5017572;28;20041;-63
2022/08/06 10:43:49;;;;;;;2.00;1.45;;;22.30;73.60;;;;;;5015471;28;20431;-63
2022/08/06 10:46:19;;;;;;;2.97;1.80;;;22.20;73.00;;;;;;5000829;28;20068;-63
2022/08/06 10:48:46;;;;;;;2.28;1.80;;;22.20;71.30;;;;;;5016197;28;20128;-63
2022/08/06 10:51:13;;;;;;;2.97;1.88;;;22.30;71.00;;;;;;5033636;28;20483;-63
2022/08/06 10:53:43;;;;;;;2.80;1.83;;;22.60;70.40;;;;;;5006249;28;20041;-63
2022/08/06 10:56:12;;;;;;;3.42;2.00;;;22.80;69.40;;;;;;5033199;28;20044;-63
2022/08/06 10:58:39;;;;;;;2.83;1.70;;;22.90;68.10;;;;;;5034198;28;20150;-62
2022/08/06 11:01:08;;;;;;;3.40;1.90;;;23.10;67.60;;;;;;4998786;28;20053;-63
2022/08/06 11:04:06;;;;;;;2.50;1.50;;;23.40;66.30;;;;;;5034100;28;20128;-63
2022/08/06 11:07:09;;;;;;;4.07;1.88;;;23.60;63.80;;;;;;4929555;28;20504;-63
2022/08/06 11:09:35;;;;;;;;;;;23.60;62.40;;;;;;5035003;28;20136;-62
2022/08/06 11:12:33;;;;;;;5.55;2.13;;;23.60;63.90;;;;;;5013601;28;20475;-63
2022/08/06 11:15:00;;;;;;;1.80;1.70;;;23.60;62.30;;;;;;5032492;28;20038;-63
2022/08/06 11:17:40;;;;;;;2.75;2.35;;;23.70;63.00;;;;;;5032287;28;20083;-63
2022/08/06 11:20:06;;;;;;;3.08;2.20;;;23.90;63.40;;;;;;5015787;28;20057;-63
2022/08/06 11:22:40;;;;;;;2.72;2.28;;;24.20;62.20;;;;;;5031483;28;20069;-63
2022/08/06 11:25:08;;;;;;;4.40;2.72;;;24.50;61.20;;;;;;5030191;28;20610;-63
2022/08/06 11:27:56;;;;;;;2.58;2.38;;;24.60;60.30;;;;;;5012990;28;20513;-63
2022/08/06 11:30:46;;;;;;;2.65;2.30;;;24.80;59.50;;;;;;5008399;28;20404;-63
2022/08/06 11:33:33;;;;;;;3.72;2.60;;;25.00;59.20;;;;;;5005746;28;20112;-63
2022/08/06 11:36:00;;;;;;;4.05;2.92;;;25.20;58.30;;;;;;5014701;28;20517;-63
2022/08/06 11:38:47;;;;;;;4.53;2.97;;;25.40;58.40;;;;;;5013760;28;20049;-63
2022/08/06 11:41:27;;;;;;;3.17;2.63;;;25.50;58.90;;;;;;5031778;28;20048;-63
2022/08/06 11:43:53;;;;;;;3.05;2.75;;;25.70;56.90;;;;;;5037409;28;20430;-64
2022/08/06 11:46:19;;;;;;;3.45;2.63;;;25.60;56.30;;;;;;5018450;28;20045;-64
2022/08/06 11:48:59;;;;;;;4.88;2.90;;;25.40;58.00;;;;;;5059101;28;20044;-63
2022/08/06 11:51:45;;;;;;;3.47;2.83;;;25.30;58.20;;;;;;5052689;28;20048;-64
2022/08/06 11:54:19;;;;;;;5.72;2.90;;;25.20;57.90;;;;;;5057511;28;20371;-63
2022/08/06 11:57:01;;;;;;;3.85;2.67;;;25.20;58.50;;;;;;5058274;28;20055;-63
2022/08/06 11:59:53;;;;;;;4.90;3.10;;;25.10;58.10;;;;;;5055324;28;20553;-64
2022/08/06 12:02:41;;;;;;;4.05;2.90;;;25.00;58.40;;;;;;5039241;28;20079;-63
2022/08/06 12:05:16;;;;;;;5.72;2.92;;;25.00;57.70;;;;;;5041599;28;20071;-63
2022/08/06 12:07:46;;;;;;;4.13;2.80;;;24.90;57.50;;;;;;5056751;28;20044;-63
2022/08/06 12:10:13;;;;;;;4.60;3.20;;;24.70;57.50;;;;;;5038718;28;20114;-64
2022/08/06 12:12:46;;;;;;;3.58;2.60;;;24.70;57.40;;;;;;5035509;28;20109;-64
2022/08/06 12:15:12;;;;;;;4.18;2.90;;;24.70;56.30;;;;;;5052203;28;20055;-63
2022/08/06 12:17:40;;;;;;;3.53;3.10;;;25.00;55.90;;;;;;5050398;28;20049;-64
2022/08/06 12:20:07;;;;;;;5.50;3.15;;;25.20;55.70;;;;;;5035695;28;20067;-63
2022/08/06 12:22:35;;;;;;;4.75;2.75;;;25.20;54.70;;;;;;5032796;28;20102;-63
2022/08/06 12:25:06;;;;;;;4.10;3.00;;;25.20;53.80;;;;;;5034885;28;20654;-64
2022/08/06 12:27:35;;;;;;;3.30;3.00;;;25.40;53.90;;;;;;5034682;28;20045;-63
2022/08/06 12:30:03;;;;;;;4.45;3.15;;;25.60;53.50;;;;;;5053158;28;20040;-64
2022/08/06 12:32:32;;;;;;;4.40;3.03;;;25.90;53.40;;;;;;5052981;28;20076;-61
2022/08/06 12:35:04;;;;;;;3.67;3.10;;;26.10;54.20;;;;;;5034429;28;20045;-64
2022/08/06 12:37:40;;;;;;;;;;;26.20;53.40;;;;;;5052154;28;20523;-63
2022/08/06 12:40:27;;;;;;;3.47;3.00;;;26.30;53.60;;;;;;5051973;28;19920;-63
2022/08/06 12:43:00;;;;;;;3.35;3.00;;;26.30;52.50;;;;;;5055195;28;20478;-64
2022/08/06 12:45:27;;;;;;;3.53;3.10;;;26.50;52.40;;;;;;5034688;28;20108;-63
2022/08/06 12:48:05;;;;;;;3.45;2.70;;;26.50;52.00;;;;;;5035226;28;20068;-63
2022/08/06 12:50:32;;;;;;;5.45;3.20;;;26.50;52.50;;;;;;5052043;28;20037;-64
2022/08/06 12:53:15;;;;;;;3.65;2.88;;;26.60;52.70;;;;;;5037937;28;20048;-63
2022/08/06 12:55:47;;;;;;;5.20;3.20;;;26.80;53.20;;;;;;5035346;28;20075;-64
2022/08/06 12:58:19;;;;;;;5.60;3.03;;;27.00;53.10;;;;;;5031224;28;20073;-64
2022/08/06 13:00:56;;;;;;;3.55;3.00;;;27.10;52.30;;;;;;5033965;28;20051;-64
2022/08/06 13:03:23;;;;;;;5.60;2.90;;;27.20;52.20;;;;;;5032740;28;20045;-62
2022/08/06 13:05:51;;;;;;;3.15;2.80;;;27.30;51.40;;;;;;5028651;28;20037;-62
2022/08/06 13:08:19;;;;;;;3.33;2.90;;;27.40;52.30;;;;;;5031432;28;20067;-61
2022/08/06 13:10:53;;;;;;;3.20;2.88;;;27.50;51.00;;;;;;5030391;28;20041;-62